createdAt,value
2023-12-15T00:04:35.492Z,102719.16
2023-12-15T00:09:38.272Z,102692.75
2023-12-15T00:14:41.371Z,102712.75
2023-12-15T00:19:45.900Z,102661.16
2023-12-15T00:24:48.590Z,102628.88
2023-12-15T00:29:51.498Z,102686.81
2023-12-15T00:34:54.360Z,102634.53
2023-12-15T00:39:58.169Z,102598.91
2023-12-15T00:45:01.244Z,102659.72
2023-12-15T00:50:06.654Z,102649.78
2023-12-15T00:55:09.983Z,102616.59
2023-12-15T01:00:13.557Z,102672.91
2023-12-15T01:05:16.744Z,102676.75
2023-12-15T01:10:19.681Z,102566.81
2023-12-15T01:15:22.781Z,102595.72
2023-12-15T01:20:26.044Z,102651.84
2023-12-15T01:25:28.764Z,102605.84
2023-12-15T01:30:31.737Z,102602.44
2023-12-15T01:35:34.531Z,102670.28
2023-12-15T01:40:37.590Z,102634.94
2023-12-15T01:45:40.578Z,102648.84
2023-12-15T01:50:43.454Z,102639.38
2023-12-15T01:55:46.468Z,102631.47
2023-12-15T02:00:49.619Z,102631.19
2023-12-15T02:05:54.890Z,102564.22
2023-12-15T02:10:58.179Z,102582.63
2023-12-15T02:16:01.577Z,102563.38
2023-12-15T02:21:04.728Z,102622.03
2023-12-15T02:26:07.486Z,102624.75
2023-12-15T02:31:10.705Z,102574.53
2023-12-15T02:36:24.390Z,102612.53
2023-12-15T02:41:27.188Z,102594.66
2023-12-15T02:46:30.112Z,102617.66
2023-12-15T02:51:33.466Z,102609.84
2023-12-15T02:56:36.651Z,102661.69
2023-12-15T03:01:39.541Z,102651.56
2023-12-15T03:06:42.805Z,102613.41
2023-12-15T03:11:45.877Z,102599.19
2023-12-15T03:16:48.697Z,102585.06
2023-12-15T03:21:51.587Z,102620.75
2023-12-15T03:26:54.505Z,102608.16
2023-12-15T03:31:58.077Z,102612.88
2023-12-15T03:37:01.038Z,102625.66
2023-12-15T03:42:07.727Z,102656.06
2023-12-15T03:47:10.785Z,102639.44
2023-12-15T03:52:14.039Z,102686.44
2023-12-15T03:57:17.084Z,102691.09
2023-12-15T04:02:21.912Z,102647.69
2023-12-15T04:07:24.885Z,102632.50
2023-12-15T04:12:28.008Z,102636.00
2023-12-15T04:17:30.903Z,102571.63
2023-12-15T04:22:34.179Z,102630.47
2023-12-15T04:27:40.069Z,102629.97
2023-12-15T04:32:43.422Z,102641.94
2023-12-15T04:37:48.401Z,102665.03
2023-12-15T04:42:51.299Z,102658.94
2023-12-15T04:47:56.178Z,102673.84
2023-12-15T04:52:59.234Z,102646.88
2023-12-15T04:58:02.212Z,102639.94
2023-12-15T05:03:05.303Z,102640.56
2023-12-15T05:08:08.620Z,102677.09
2023-12-15T05:13:11.787Z,102676.97
2023-12-15T05:18:15.220Z,102661.22
2023-12-15T05:23:18.391Z,102623.22
2023-12-15T05:28:21.638Z,102564.22
2023-12-15T05:33:26.027Z,102599.19
2023-12-15T05:38:38.543Z,102618.56
2023-12-15T05:43:45.810Z,102580.16
2023-12-15T05:49:10.198Z,102631.09
2023-12-15T05:54:13.366Z,102631.63
2023-12-15T05:59:16.396Z,102633.53
2023-12-15T06:04:40.420Z,102606.25
2023-12-15T06:09:44.166Z,102623.00
2023-12-15T06:14:47.098Z,102568.19
2023-12-15T06:19:50.145Z,102592.19
2023-12-15T06:24:52.906Z,102607.47
2023-12-15T06:29:57.310Z,102546.25
2023-12-15T06:35:00.474Z,102555.38
2023-12-15T06:40:04.793Z,102577.00
2023-12-15T06:45:11.605Z,102615.88
2023-12-15T06:50:14.939Z,102586.50
2023-12-15T06:55:18.566Z,102569.09
2023-12-15T07:00:22.234Z,102627.66
2023-12-15T07:05:25.366Z,102611.25
2023-12-15T07:10:28.374Z,102594.06
2023-12-15T07:15:32.469Z,102617.94
2023-12-15T07:20:36.077Z,102579.72
2023-12-15T07:25:42.184Z,102572.06
2023-12-15T07:30:45.058Z,102583.41
2023-12-15T07:35:48.126Z,102446.88
2023-12-15T07:40:55.829Z,102536.84
2023-12-15T07:45:58.860Z,102538.47
2023-12-15T07:51:02.213Z,102511.00
2023-12-15T07:56:05.528Z,102504.19
2023-12-15T08:01:11.044Z,102499.63
2023-12-15T08:06:17.851Z,102444.09
2023-12-15T08:11:21.559Z,102503.47
2023-12-15T08:16:24.757Z,102448.44
2023-12-15T08:21:27.826Z,102466.72
2023-12-15T08:26:30.802Z,102391.03
2023-12-15T08:31:36.984Z,102455.13
2023-12-15T08:37:08.845Z,102476.69
2023-12-15T08:42:19.856Z,102444.38
2023-12-15T08:47:23.191Z,102385.53
2023-12-15T08:52:26.772Z,102385.97
2023-12-15T08:57:30.496Z,102378.00
2023-12-15T09:02:34.801Z,102439.13
2023-12-15T09:07:38.261Z,102383.78
2023-12-15T09:12:42.040Z,102454.22
2023-12-15T09:17:46.093Z,102418.84
2023-12-15T09:22:49.324Z,102438.69
2023-12-15T09:28:05.666Z,102456.06
2023-12-15T09:33:09.432Z,102377.28
2023-12-15T09:38:12.650Z,102404.88
2023-12-15T09:43:16.174Z,102381.59
2023-12-15T09:48:20.455Z,102358.63
2023-12-15T09:53:25.653Z,102421.25
2023-12-15T09:58:32.227Z,102409.75
2023-12-15T10:03:36.015Z,102368.03
2023-12-15T10:08:57.680Z,102360.69
2023-12-15T10:14:09.066Z,102340.78
2023-12-15T10:19:12.446Z,102346.53
2023-12-15T10:24:26.517Z,102374.16
2023-12-15T10:29:30.334Z,102311.50
2023-12-15T10:34:33.374Z,102339.75
2023-12-15T10:39:36.587Z,102361.16
2023-12-15T10:44:42.615Z,102349.50
2023-12-15T10:49:52.984Z,102315.09
2023-12-15T10:55:01.171Z,102322.88
2023-12-15T11:00:09.215Z,102281.34
2023-12-15T11:05:15.383Z,102313.97
2023-12-15T11:10:18.869Z,102308.19
2023-12-15T11:15:24.896Z,102315.94
2023-12-15T11:20:28.255Z,102330.22
2023-12-15T11:25:33.950Z,102311.25
2023-12-15T11:30:39.132Z,102332.94
2023-12-15T11:35:42.447Z,102297.06
2023-12-15T11:40:53.748Z,102263.50
2023-12-15T11:45:57.269Z,102293.56
2023-12-15T11:51:02.092Z,102211.44
2023-12-15T11:56:08.923Z,102256.88
2023-12-15T12:01:12.464Z,102243.31
2023-12-15T12:06:22.547Z,102180.22
2023-12-15T12:11:26.117Z,102291.78
2023-12-15T12:16:29.201Z,102210.09
2023-12-15T12:21:33.483Z,102277.31
2023-12-15T12:26:36.665Z,102280.91
2023-12-15T12:31:39.809Z,102293.63
2023-12-15T12:36:45.629Z,102288.81
2023-12-15T12:41:48.711Z,102192.16
2023-12-15T12:46:52.517Z,102244.00
2023-12-15T12:51:55.929Z,102300.72
2023-12-15T12:57:00.895Z,102286.78
2023-12-15T13:02:11.780Z,102221.72
2023-12-15T13:07:27.653Z,102261.34
2023-12-15T13:12:30.661Z,102278.25
2023-12-15T13:17:33.839Z,102225.13
2023-12-15T13:22:47.272Z,102182.44
2023-12-15T13:27:53.255Z,102255.97
2023-12-15T13:33:12.002Z,102238.59
2023-12-15T13:38:15.919Z,102227.28
2023-12-15T13:43:19.876Z,102248.44
2023-12-15T13:48:23.363Z,102154.06
2023-12-15T13:53:27.771Z,102248.88
2023-12-15T13:58:30.836Z,102217.38
2023-12-15T14:03:34.502Z,102224.19
2023-12-15T14:08:37.975Z,102221.16
2023-12-15T14:13:41.413Z,102258.44
2023-12-15T14:18:45.278Z,102266.69
2023-12-15T14:23:48.409Z,102213.13
2023-12-15T14:28:51.438Z,102236.63
2023-12-15T14:33:54.747Z,102180.28
2023-12-15T14:38:58.004Z,102168.88
2023-12-15T14:44:02.249Z,102184.28
2023-12-15T14:49:05.489Z,102181.16
2023-12-15T14:54:08.689Z,102140.75
2023-12-15T14:59:11.746Z,102116.50
2023-12-15T15:04:14.718Z,102095.09
2023-12-15T15:09:21.533Z,102162.41
2023-12-15T15:14:24.875Z,102147.75
2023-12-15T15:19:28.677Z,102146.28
2023-12-15T15:24:31.915Z,102135.09
2023-12-15T15:29:34.651Z,102040.59
2023-12-15T15:34:40.471Z,102138.97
2023-12-15T15:39:46.213Z,102088.66
2023-12-15T15:44:49.058Z,102087.63
2023-12-15T15:49:52.050Z,102090.53
2023-12-15T15:54:55.189Z,102025.66
2023-12-15T15:59:58.573Z,102081.19
2023-12-15T16:05:01.706Z,102112.59
2023-12-15T16:10:06.932Z,102098.44
2023-12-15T16:15:10.441Z,102094.38
2023-12-15T16:20:13.354Z,102066.91
2023-12-15T16:25:16.508Z,102104.31
2023-12-15T16:30:20.899Z,102072.97
2023-12-15T16:35:24.029Z,102105.00
2023-12-15T16:40:26.833Z,102087.38
2023-12-15T16:45:29.846Z,102047.78
2023-12-15T16:50:33.316Z,102056.97
2023-12-15T16:55:36.169Z,101993.25
2023-12-15T17:00:39.381Z,101991.81
2023-12-15T17:05:42.581Z,102016.97
2023-12-15T17:10:45.793Z,101993.47
2023-12-15T17:15:48.696Z,101989.53
2023-12-15T17:20:51.585Z,101952.97
2023-12-15T17:25:54.970Z,101970.63
2023-12-15T17:30:57.940Z,102019.78
2023-12-15T17:36:01.047Z,101910.91
2023-12-15T17:41:06.081Z,101968.22
2023-12-15T17:46:09.191Z,101981.00
2023-12-15T17:51:12.755Z,101963.97
2023-12-15T17:56:16.116Z,101955.84
2023-12-15T18:01:19.446Z,101993.75
2023-12-15T18:06:23.144Z,101971.97
2023-12-15T18:11:26.457Z,101988.03
2023-12-15T18:16:29.841Z,101918.91
2023-12-15T18:21:33.185Z,101927.50
2023-12-15T18:26:37.379Z,101983.28
2023-12-15T18:31:40.235Z,101957.50
2023-12-15T18:36:43.308Z,101952.50
2023-12-15T18:41:48.333Z,101950.00
2023-12-15T18:46:52.510Z,101920.56
2023-12-15T18:51:55.808Z,101862.03
2023-12-15T18:56:59.445Z,101892.41
2023-12-15T19:02:03.106Z,101906.19
2023-12-15T19:07:06.079Z,101890.75
2023-12-15T19:12:08.999Z,101910.00
2023-12-15T19:17:12.251Z,101916.81
2023-12-15T19:22:15.807Z,101918.75
2023-12-15T19:27:18.841Z,101898.97
2023-12-15T19:32:21.763Z,101960.47
2023-12-15T19:37:25.296Z,101895.41
2023-12-15T19:42:30.776Z,101912.56
2023-12-15T19:47:33.956Z,101887.34
2023-12-15T19:52:36.938Z,101863.22
2023-12-15T19:57:40.330Z,101796.66
2023-12-15T20:02:43.560Z,101909.03
2023-12-15T20:07:47.334Z,101927.28
2023-12-15T20:12:50.267Z,101928.22
2023-12-15T20:17:53.558Z,101828.59
2023-12-15T20:22:56.609Z,101913.06
2023-12-15T20:28:00.821Z,101889.91
2023-12-15T20:33:04.000Z,101881.13
2023-12-15T20:38:09.621Z,101895.38
2023-12-15T20:43:13.068Z,101855.44
2023-12-15T20:48:17.275Z,101811.38
2023-12-15T20:53:20.598Z,101880.31
2023-12-15T20:58:23.803Z,101872.03
2023-12-15T21:03:27.297Z,101908.50
2023-12-15T21:08:30.700Z,101933.63
2023-12-15T21:13:33.992Z,101915.63
2023-12-15T21:18:37.443Z,101947.47
2023-12-15T21:23:40.672Z,101951.84
2023-12-15T21:28:43.450Z,101961.47
2023-12-15T21:33:46.814Z,101938.94
2023-12-15T21:38:50.071Z,101928.28
2023-12-15T21:43:54.189Z,101892.53
2023-12-15T21:48:57.357Z,101904.13
2023-12-15T21:54:01.293Z,101941.44
2023-12-15T21:59:04.242Z,101930.88
2023-12-15T22:04:09.049Z,101920.00
2023-12-15T22:09:12.724Z,101906.50
2023-12-15T22:14:16.554Z,101885.75
2023-12-15T22:19:20.076Z,101869.44
2023-12-15T22:24:23.179Z,101838.03
2023-12-15T22:29:26.012Z,101896.91
2023-12-15T22:34:29.123Z,101935.38
2023-12-15T22:39:31.965Z,101926.34
2023-12-15T22:44:34.937Z,101930.41
2023-12-15T22:49:38.163Z,101948.03
2023-12-15T22:54:41.085Z,101920.19
2023-12-15T22:59:44.785Z,101907.97
2023-12-15T23:04:48.127Z,101902.63
2023-12-15T23:09:50.891Z,101955.00
2023-12-15T23:14:53.871Z,101946.72
2023-12-15T23:19:56.788Z,101937.19
2023-12-15T23:24:59.759Z,101933.88
2023-12-15T23:30:02.509Z,101933.09
2023-12-15T23:35:06.579Z,101897.34
2023-12-15T23:40:10.017Z,101952.19
2023-12-15T23:45:13.090Z,101941.53
2023-12-15T23:50:16.114Z,101897.25
2023-12-15T23:55:19.247Z,101933.13
